Latest Weather Observations for Scherger

IDQ60801

Issued at 8:32 am EST Thursday 28 July 2016 (issued every 30 minutes, with the page automatically refreshed every 10 minutes)

About weather observations | Map of weather stations | Latest weather observations for QLD | Other Formats
Station Details ID: 027075 Name: SCHERGER RAAF Lat: -12.62 Lon: 142.09 Height: 39.34 m
Data from the previous 72 hours. | See also: Recent months at Scherger
Date/Time
EST
Temp
°C
App
Temp
°C
Dew
Point
°C
Rel
Hum
%
Delta-T
°C
Wind Press
QNH
hPa
Press
MSL
hPa
Rain since
9am
mm
Dir  Spd
km/h
Gust
km/h
Spd
kts
Gust
kts
28/08:30am 25.4 25.8 19.1 68 4.0 SE 15 24 8 13 1014.2 1014.0 0.0
28/08:00am 24.9 25.8 19.3 71 3.6 SE 13 19 7 10 1013.9 1013.7 0.0
28/07:30am 24.0 25.1 18.9 73 3.2 SE 11 17 6 9 1013.8 1013.6 0.0
28/07:00am 23.9 25.0 18.8 73 3.2 SE 11 19 6 10 1013.5 1013.3 0.0
28/06:30am 24.1 24.9 19.0 73 3.3 SSE 13 22 7 12 1013.3 1013.1 0.0
28/06:00am 24.1 25.4 19.4 75 3.0 SSE 11 19 6 10 1013.1 1012.9 0.0
28/05:30am 24.7 26.0 19.3 72 3.5 SE 11 20 6 11 1012.8 1012.6 0.0
28/05:00am 24.7 26.0 19.3 72 3.5 SE 11 20 6 11 1012.7 1012.5 0.0
28/04:30am 24.9 25.8 19.3 71 3.6 SE 13 24 7 13 1012.8 1012.6 0.0
28/04:00am 24.8 26.2 19.6 73 3.4 ESE 11 20 6 11 1012.7 1012.5 0.0
28/03:30am 24.8 26.2 19.6 73 3.4 SE 11 22 6 12 1012.8 1012.6 0.0
28/03:00am 24.8 26.5 19.4 72 3.5 SE 9 17 5 9 1012.9 1012.7 0.0
28/02:30am 25.0 26.3 19.4 71 3.6 SE 11 17 6 9 1013.1 1012.9 0.0
28/02:00am 25.3 25.5 19.4 70 3.8 SE 17 28 9 15 1013.3 1013.1 0.0
28/01:30am 25.3 26.8 19.7 71 3.6 SE 11 17 6 9 1013.7 1013.5 0.0
28/01:00am 25.5 26.2 19.6 70 3.8 SE 15 24 8 13 1013.8 1013.6 0.0
28/12:30am 25.7 26.4 19.6 69 3.9 SE 15 28 8 15 1013.9 1013.7 0.0
28/12:00am 25.8 26.9 19.7 69 3.9 SE 13 26 7 14 1014.0 1013.8 0.0
 
Date/Time
EST
Temp
°C
App
Temp
°C
Dew
Point
°C
Rel
Hum
%
Delta-T
°C
Wind Press
QNH
hPa
Press
MSL
hPa
Rain since
9am
mm
Dir  Spd
km/h
Gust
km/h
Spd
kts
Gust
kts
27/11:30pm 25.8 27.7 19.7 69 4.0 SE 9 15 5 8 1014.3 1014.1 0.0
27/11:00pm 26.0 27.8 19.6 68 4.1 SE 9 17 5 9 1014.5 1014.3 0.0
27/10:30pm 26.2 27.9 19.3 65 4.4 ESE 9 17 5 9 1014.6 1014.4 0.0
27/10:00pm 26.3 27.6 19.2 65 4.6 ESE 11 17 6 9 1014.3 1014.1 0.0
27/09:30pm 26.4 27.9 19.0 63 4.8 ESE 9 15 5 8 1014.1 1013.9 0.0
27/09:00pm 26.6 28.1 19.0 63 4.9 ESE 9 20 5 11 1013.9 1013.7 0.0
27/08:30pm 26.8 28.1 19.2 63 4.9 ESE 11 19 6 10 1013.7 1013.5 0.0
27/08:00pm 26.9 27.9 18.7 60 5.3 ESE 11 19 6 10 1013.3 1013.1 0.0
27/07:30pm 27.3 27.1 18.6 59 5.6 ESE 17 30 9 16 1012.9 1012.7 0.0
27/07:00pm 27.8 28.7 18.5 57 6.0 E 11 20 6 11 1012.5 1012.3 0.0
27/06:30pm 28.1 29.0 18.5 56 6.2 E 11 15 6 8 1012.0 1011.8 0.0
27/06:00pm 28.6 29.9 18.4 54 6.5 E 9 17 5 9 1011.6 1011.4 0.0
27/05:30pm 29.1 30.2 17.9 50 7.1 E 9 17 5 9 1011.1 1010.9 0.0
27/05:00pm 30.0 30.6 17.8 48 7.8 E 11 20 6 11 1010.7 1010.5 0.0
27/04:30pm 30.8 31.1 17.8 45 8.3 ESE 13 22 7 12 1010.6 1010.4 0.0
27/04:00pm 30.6 30.8 17.7 46 8.2 E 13 19 7 10 1010.6 1010.4 0.0
27/03:30pm 30.4 30.4 17.1 44 8.4 ESE 13 20 7 11 1010.5 1010.3 0.0
27/03:00pm 31.2 31.0 16.8 42 9.1 ESE 13 20 7 11 1010.6 1010.4 0.0
27/02:30pm 32.7 33.2 16.5 37 10.2 SE 9 17 5 9 1010.7 1010.5 0.0
27/02:00pm 32.3 31.7 15.7 36 10.4 SE 13 20 7 11 1011.1 1010.9 0.0
27/01:30pm 32.5 32.1 16.3 37 10.2 SE 13 20 7 11 1011.5 1011.3 0.0
27/01:00pm 31.1 29.7 15.5 39 9.7 SE 17 28 9 15 1011.9 1011.7 0.0
27/12:30pm 31.0 29.5 15.4 38 9.6 SSE 17 26 9 14 1012.3 1012.1 0.0
27/12:00pm 30.2 28.4 15.5 41 9.1 SSE 19 33 10 18 1012.8 1012.6 0.0
27/11:30am 29.4 29.5 16.6 46 8.0 ESE 11 17 6 9 1013.3 1013.1 0.0
27/11:00am 28.7 29.8 17.9 52 6.9 ESE 9 13 5 7 1013.8 1013.6 0.0
27/10:30am 27.4 27.6 17.6 55 6.2 SE 13 20 7 11 1014.1 1013.9 0.0
27/10:00am 26.9 27.5 17.7 57 5.8 SE 11 20 6 11 1014.1 1013.9 0.0
27/09:30am 25.7 27.1 18.6 65 4.5 SSE 9 17 5 9 1014.2 1014.0 0.0
27/09:00am 24.0 24.8 18.2 70 3.6 SSE 11 19 6 10 1014.1 1013.9 0.0
27/08:30am 23.3 24.3 18.6 75 3.0 SSE 11 17 6 9 1013.8 1013.6 0.0
27/08:00am 21.9 23.2 18.5 81 2.1 SSE 9 13 5 7 1013.6 1013.4 0.0
27/07:30am 20.5 23.5 18.4 88 1.3 CALM 0 0 0 0 1013.3 1013.1 0.0
27/07:00am 20.3 21.9 17.9 86 1.5 SSE 6 7 3 4 1013.1 1012.9 0.0
27/06:30am 20.7 22.3 18.3 86 1.5 S 7 11 4 6 1012.9 1012.7 0.0
27/06:00am 20.9 22.5 18.3 85 1.6 S 7 13 4 7 1012.7 1012.5 0.0
27/05:30am 21.1 22.1 18.7 86 1.5 S 11 17 6 9 1012.4 1012.2 0.0
27/05:00am 20.6 22.3 18.5 88 1.3 S 7 11 4 6 1012.4 1012.2 0.0
27/04:30am 20.6 22.4 18.7 89 1.2 SSW 7 11 4 6 1012.3 1012.1 0.0
27/04:00am 20.4 22.4 18.7 90 1.1 SSW 6 9 3 5 1012.3 1012.1 0.0
27/03:30am 20.4 23.3 18.3 88 1.3 CALM 0 6 0 3 1012.3 1012.1 0.0
27/03:00am 20.3 23.1 17.9 86 1.5 CALM 0 0 0 0 1012.3 1012.1 0.0
27/02:30am 21.2 23.2 18.8 86 1.5 SSW 6 7 3 4 1012.3 1012.1 0.0
27/02:00am 21.6 23.7 19.0 85 1.6 SSE 6 9 3 5 1012.6 1012.4 0.0
27/01:30am 21.9 23.9 19.1 84 1.8 SSE 7 11 4 6 1012.7 1012.5 0.0
27/01:00am 22.4 24.4 19.2 82 2.0 SE 7 11 4 6 1013.1 1012.9 0.0
27/12:30am 22.8 24.4 19.2 80 2.3 SE 9 15 5 8 1013.2 1013.0 0.0
27/12:00am 23.1 24.7 19.1 78 2.5 SE 9 13 5 7 1013.5 1013.3 0.0
 
Date/Time
EST
Temp
°C
App
Temp
°C
Dew
Point
°C
Rel
Hum
%
Delta-T
°C
Wind Press
QNH
hPa
Press
MSL
hPa
Rain since
9am
mm
Dir  Spd
km/h
Gust
km/h
Spd
kts
Gust
kts
26/11:30pm 23.3 25.1 18.8 76 2.9 SE 7 13 4 7 1013.6 1013.4 0.0
26/11:00pm 23.9 25.4 18.8 73 3.2 SE 9 15 5 8 1013.6 1013.4 0.0
26/10:30pm 24.6 25.7 18.8 70 3.7 ESE 11 15 6 8 1013.7 1013.5 0.0
26/10:00pm 25.2 26.3 18.9 68 4.0 ESE 11 19 6 10 1013.4 1013.2 0.0
26/09:30pm 25.4 26.2 19.1 68 4.0 ESE 13 24 7 13 1013.3 1013.1 0.0
26/09:00pm 25.7 26.3 18.6 65 4.5 ESE 13 30 7 16 1013.3 1013.1 0.0
26/08:30pm 25.7 27.1 18.6 65 4.5 ESE 9 15 5 8 1012.9 1012.7 0.0
26/08:00pm 25.8 26.7 18.5 64 4.6 SE 11 17 6 9 1012.5 1012.3 0.0
26/07:30pm 26.4 27.7 18.5 62 5.0 ESE 9 13 5 7 1012.1 1011.9 0.0
26/07:00pm 27.1 28.1 18.7 60 5.4 ESE 11 15 6 8 1011.6 1011.4 0.0
26/06:30pm 27.7 28.8 18.1 56 6.1 ESE 9 13 5 7 1011.2 1011.0 0.0
26/06:00pm 29.0 29.4 17.2 49 7.4 ESE 11 20 6 11 1010.7 1010.5 0.0
26/05:30pm 29.9 30.8 16.7 45 8.3 E 7 13 4 7 1010.2 1010.0 0.0
26/05:00pm 31.6 32.5 17.5 43 9.0 E 9 17 5 9 1009.9 1009.7 0.0
26/04:30pm 31.3 31.0 16.5 41 9.3 ESE 13 20 7 11 1009.8 1009.6 0.0
26/04:00pm 31.1 31.3 16.7 42 9.1 E 11 26 6 14 1009.9 1009.7 0.0
26/03:30pm 31.9 31.8 17.0 41 9.5 E 13 20 7 11 1010.0 1009.8 0.0
26/03:00pm 30.3 29.6 16.3 42 8.8 ESE 15 26 8 14 1010.4 1010.2 0.0
26/02:30pm 32.1 31.6 16.8 40 9.7 E 15 22 8 12 1010.5 1010.3 0.0
26/02:00pm 31.9 32.2 17.0 41 9.5 ESE 11 20 6 11 1010.9 1010.7 0.0
26/01:30pm 31.5 31.0 17.0 41 9.2 E 15 26 8 14 1011.2 1011.0 0.0
26/01:00pm 30.9 30.1 17.2 43 8.7 E 17 32 9 17 1011.6 1011.4 0.0
26/12:30pm 29.5 29.6 18.3 51 7.2 SE 15 28 8 15 1012.1 1011.9 0.0
26/12:00pm 29.5 29.9 18.9 53 6.9 ESE 15 20 8 11 1012.7 1012.5 0.0
26/11:30am 30.0 30.3 18.8 51 7.3 E 15 22 8 12 1013.1 1012.9 0.0
26/11:00am 28.6 29.4 19.0 56 6.2 SE 13 20 7 11 1013.4 1013.2 0.0
26/10:30am 28.2 28.3 19.2 58 5.8 SE 17 28 9 15 1013.5 1013.3 0.0
26/10:00am 26.8 27.3 19.2 63 4.9 ESE 15 24 8 13 1013.6 1013.4 0.0
26/09:30am 25.8 26.8 19.4 67 4.1 SE 13 22 7 12 1013.6 1013.4 0.0
26/09:00am 23.9 25.4 19.0 74 3.1 SE 9 17 5 9 1013.7 1013.5 0.0
26/08:30am 22.2 23.5 18.4 79 2.4 SSE 9 13 5 7 1013.6 1013.4 0.0
26/08:00am 20.3 22.0 18.6 90 1.1 S 7 11 4 6 1013.4 1013.2 0.0
26/07:30am 18.3 20.7 17.0 92 0.8 CALM 0 0 0 0 1013.1 1012.9 0.0
26/07:00am 17.7 19.4 16.2 91 0.9 S 2 7 1 4 1012.9 1012.7 0.0
26/06:30am 17.6 18.6 16.3 92 0.8 S 6 7 3 4 1012.6 1012.4 0.0
26/06:00am 17.8 19.8 16.1 90 1.0 CALM 0 0 0 0 1012.4 1012.2 0.0
26/05:30am 18.1 20.1 16.1 88 1.2 CALM 0 0 0 0 1012.2 1012.0 0.0
26/05:00am 18.6 20.5 16.8 89 1.1 S 2 7 1 4 1012.2 1012.0 0.0
26/04:30am 18.9 20.3 16.3 85 1.6 S 4 7 2 4 1012.0 1011.8 0.0
26/04:00am 20.1 21.1 16.9 82 1.9 SSE 7 9 4 5 1012.1 1011.9 0.0
26/03:30am 20.8 21.9 17.2 80 2.2 SE 7 11 4 6 1012.0 1011.8 0.0
26/03:00am 21.1 21.8 17.1 78 2.4 SSE 9 17 5 9 1011.9 1011.7 0.0
26/02:30am 21.4 22.9 17.6 79 2.3 SE 6 13 3 7 1012.1 1011.9 0.0
26/02:00am 21.2 22.0 17.4 79 2.3 SSE 9 13 5 7 1012.4 1012.2 0.0
26/01:30am 21.3 22.2 17.5 79 2.3 SSE 9 11 5 6 1012.6 1012.4 0.0
26/01:00am 21.5 22.9 17.9 80 2.2 SSE 7 11 4 6 1012.9 1012.7 0.0
26/12:30am 21.4 22.8 17.8 80 2.2 SSE 7 11 4 6 1013.1 1012.9 0.0
26/12:00am 21.4 22.7 17.6 79 2.3 SSE 7 9 4 5 1013.3 1013.1 0.0
 
Date/Time
EST
Temp
°C
App
Temp
°C
Dew
Point
°C
Rel
Hum
%
Delta-T
°C
Wind Press
QNH
hPa
Press
MSL
hPa
Rain since
9am
mm
Dir  Spd
km/h
Gust
km/h
Spd
kts
Gust
kts
25/11:30pm 22.1 23.6 17.7 76 2.7 SE 6 9 3 5 1013.3 1013.1 0.0
25/11:00pm 22.5 23.5 17.8 75 2.9 SE 9 15 5 8 1013.5 1013.3 0.0
25/10:30pm 22.5 23.7 17.4 73 3.2 ESE 7 13 4 7 1013.6 1013.4 0.0
25/10:00pm 22.8 24.2 17.3 71 3.4 ESE 6 7 3 4 1013.6 1013.4 0.0
25/09:30pm 23.5 24.8 17.5 69 3.7 ESE 7 9 4 5 1013.4 1013.2 0.0
25/09:00pm 23.9 25.2 17.2 66 4.2 ESE 6 9 3 5 1013.2 1013.0 0.0
25/08:30pm 24.6 25.7 17.1 63 4.7 ESE 7 11 4 6 1012.8 1012.6 0.0
25/08:00pm 25.5 26.6 17.2 60 5.2 ESE 7 13 4 7 1012.5 1012.3 0.0
25/07:30pm 26.1 26.6 16.6 55 5.9 E 9 15 5 8 1012.0 1011.8 0.0
25/07:00pm 26.7 27.1 16.3 53 6.4 E 9 15 5 8 1011.4 1011.2 0.0
25/06:30pm 27.2 27.5 15.9 50 6.9 E 9 15 5 8 1011.0 1010.8 0.0
25/06:00pm 28.4 28.4 15.3 45 8.0 E 9 17 5 9 1010.7 1010.5 0.0
25/05:30pm 29.6 29.4 15.7 43 8.6 ESE 11 20 6 11 1010.4 1010.2 0.0
25/05:00pm 30.4 29.9 14.9 39 9.5 E 11 24 6 13 1010.2 1010.0 0.0
25/04:30pm 30.8 29.7 14.4 36 10.0 E 13 24 7 13 1010.2 1010.0 0.0
25/04:00pm 31.4 30.0 14.5 35 10.3 ESE 15 24 8 13 1010.2 1010.0 0.0
25/03:30pm 31.5 30.5 14.6 36 10.3 E 13 26 7 14 1010.3 1010.1 0.0
25/03:00pm 31.5 29.5 15.0 36 10.2 E 19 28 10 15 1010.4 1010.2 0.0
25/02:30pm 29.8 29.6 16.6 45 8.3 SE 13 20 7 11 1010.7 1010.5 0.0
25/02:00pm 30.4 29.9 16.0 41 9.0 SE 13 26 7 14 1011.0 1010.8 0.0
25/01:30pm 31.4 30.9 16.9 41 9.2 E 15 26 8 14 1011.5 1011.3 0.0
25/01:00pm 29.5 28.4 16.3 45 8.2 SE 17 28 9 15 1012.0 1011.8 0.0
25/12:30pm 30.6 29.4 16.2 41 9.0 E 17 26 9 14 1012.2 1012.0 0.0
25/12:00pm 29.3 28.9 17.2 48 7.6 ESE 15 26 8 14 1012.7 1012.5 0.0
25/11:30am 29.6 29.4 18.4 51 7.2 E 17 32 9 17 1013.1 1012.9 0.0
25/11:00am 28.8 28.5 18.3 53 6.7 ESE 17 28 9 15 1013.4 1013.2 0.0
25/10:30am 28.2 29.4 20.0 61 5.4 ESE 13 17 7 9 1013.7 1013.5 0.0
25/10:00am 26.7 27.6 19.3 64 4.8 ESE 13 22 7 12 1014.0 1013.8 0.0
25/09:30am 25.2 26.6 19.6 71 3.6 ESE 11 17 6 9 1014.0 1013.8 0.0
25/09:00am 23.6 25.9 19.9 80 2.4 ESE 7 13 4 7 1013.9 1013.7 0.0

Other Formats:

Comma delimited format used in spreadsheet applications
http://www.bom.gov.au/fwo/IDQ60801/IDQ60801.94171.axf

JavaScript Object Notation format (JSON) in row-major order
http://www.bom.gov.au/fwo/IDQ60801/IDQ60801.94171.json